createdAt,value
2023-05-11T00:02:01.531Z,11.47
2023-05-11T00:04:49.164Z,11.63
2023-05-11T00:07:39.372Z,11.51
2023-05-11T00:10:28.767Z,11.32
2023-05-11T00:13:16.525Z,11.52
2023-05-11T00:16:04.928Z,11.52
2023-05-11T00:18:52.789Z,11.49
2023-05-11T00:21:40.567Z,11.50
2023-05-11T00:24:28.503Z,11.53
2023-05-11T00:27:16.249Z,11.43
2023-05-11T00:30:04.278Z,11.46
2023-05-11T00:32:52.377Z,11.29
2023-05-11T00:35:40.400Z,11.48
2023-05-11T00:38:28.040Z,11.43
2023-05-11T00:41:16.228Z,11.32
2023-05-11T00:44:06.465Z,11.35
2023-05-11T00:46:54.263Z,11.19
2023-05-11T00:49:42.452Z,11.24
2023-05-11T00:52:30.440Z,11.28
2023-05-11T00:55:21.452Z,11.19
2023-05-11T00:58:09.359Z,11.28
2023-05-11T01:00:56.998Z,11.08
2023-05-11T01:03:48.826Z,11.25
2023-05-11T01:06:55.757Z,11.20
2023-05-11T01:10:06.916Z,11.28
2023-05-11T01:13:14.971Z,11.24
2023-05-11T01:16:09.323Z,11.19
2023-05-11T01:19:18.719Z,11.05
2023-05-11T01:22:21.429Z,10.92
2023-05-11T01:25:47.745Z,11.05
2023-05-11T01:28:57.413Z,11.05
2023-05-11T01:31:48.523Z,11.05
2023-05-11T01:34:38.808Z,11.04
2023-05-11T01:37:27.564Z,11.01
2023-05-11T01:40:19.157Z,11.00
2023-05-11T01:43:19.051Z,10.99
2023-05-11T01:46:13.099Z,10.89
2023-05-11T01:49:03.821Z,10.84
2023-05-11T01:51:53.090Z,10.90
2023-05-11T01:54:42.970Z,10.91
2023-05-11T01:57:32.516Z,10.81
2023-05-11T02:00:21.344Z,10.84
2023-05-11T02:03:10.538Z,10.80
2023-05-11T02:05:59.402Z,10.64
2023-05-11T02:08:49.368Z,10.75
2023-05-11T02:11:39.251Z,10.87
2023-05-11T02:14:34.353Z,10.87
2023-05-11T02:17:24.353Z,10.87
2023-05-11T02:20:14.003Z,10.84
2023-05-11T02:23:03.290Z,10.75
2023-05-11T02:25:53.111Z,10.76
2023-05-11T02:28:40.997Z,10.77
2023-05-11T02:31:32.865Z,10.67
2023-05-11T02:34:28.274Z,10.74
2023-05-11T02:37:22.710Z,10.53
2023-05-11T02:40:17.493Z,10.48
2023-05-11T02:43:17.900Z,10.57
2023-05-11T02:46:17.515Z,10.55
2023-05-11T02:49:09.701Z,10.48
2023-05-11T02:52:01.665Z,10.41
2023-05-11T02:54:51.614Z,10.37
2023-05-11T02:57:39.661Z,10.28
2023-05-11T03:00:29.716Z,10.21
2023-05-11T03:03:17.682Z,10.30
2023-05-11T03:06:05.692Z,10.24
2023-05-11T03:08:53.424Z,9.96
2023-05-11T03:11:42.769Z,10.21
2023-05-11T03:14:36.418Z,10.15
2023-05-11T03:17:25.496Z,10.07
2023-05-11T03:20:16.316Z,10.06
2023-05-11T03:23:06.900Z,10.13
2023-05-11T03:25:55.462Z,10.20
2023-05-11T03:28:45.216Z,10.10
2023-05-11T03:31:36.210Z,9.96
2023-05-11T03:34:24.371Z,9.92
2023-05-11T03:37:14.159Z,10.09
2023-05-11T03:40:04.448Z,10.23
2023-05-11T03:43:05.617Z,10.22
2023-05-11T03:45:54.364Z,10.03
2023-05-11T03:48:43.789Z,10.19
2023-05-11T03:51:35.737Z,10.08
2023-05-11T03:54:24.230Z,10.14
2023-05-11T03:57:12.648Z,10.10
2023-05-11T04:00:00.375Z,10.17
2023-05-11T04:02:48.541Z,10.03
2023-05-11T04:05:37.868Z,10.10
2023-05-11T04:08:29.881Z,10.14
2023-05-11T04:11:17.709Z,10.27
2023-05-11T04:14:06.015Z,10.30
2023-05-11T04:16:54.676Z,10.31
2023-05-11T04:19:43.389Z,10.35
2023-05-11T04:22:31.050Z,10.29
2023-05-11T04:25:18.764Z,10.07
2023-05-11T04:28:06.366Z,10.37
2023-05-11T04:30:59.659Z,10.42
2023-05-11T04:33:47.411Z,10.28
2023-05-11T04:36:36.274Z,10.53
2023-05-11T04:39:26.531Z,10.43
2023-05-11T04:42:14.509Z,10.06
2023-05-11T04:45:04.259Z,10.38
2023-05-11T04:47:51.959Z,10.43
2023-05-11T04:50:39.771Z,10.37
2023-05-11T04:53:28.691Z,10.58
2023-05-11T04:56:16.458Z,10.60
2023-05-11T04:59:05.412Z,10.70
2023-05-11T05:01:53.213Z,10.78
2023-05-11T05:04:40.937Z,10.89
2023-05-11T05:07:29.706Z,10.90
2023-05-11T05:10:17.907Z,10.92
2023-05-11T05:13:05.794Z,11.13
2023-05-11T05:15:53.972Z,11.18
2023-05-11T05:18:44.816Z,11.26
2023-05-11T05:21:32.869Z,11.26
2023-05-11T05:24:20.682Z,11.21
2023-05-11T05:27:08.489Z,10.90
2023-05-11T05:29:56.356Z,11.16
2023-05-11T05:32:45.981Z,11.19
2023-05-11T05:35:33.745Z,11.39
2023-05-11T05:38:22.142Z,11.63
2023-05-11T05:41:10.086Z,11.50
2023-05-11T05:44:00.716Z,11.62
2023-05-11T05:46:48.448Z,11.51
2023-05-11T05:49:36.474Z,11.80
2023-05-11T05:52:44.212Z,12.13
2023-05-11T05:55:33.450Z,12.18
2023-05-11T05:58:26.264Z,12.38
2023-05-11T06:01:14.156Z,12.47
2023-05-11T06:04:02.092Z,12.65
2023-05-11T06:06:52.507Z,12.78
2023-05-11T06:10:50.320Z,12.71
2023-05-11T06:13:43.655Z,13.02
2023-05-11T06:16:31.365Z,12.89
2023-05-11T06:19:20.313Z,13.42
2023-05-11T06:22:08.096Z,13.43
2023-05-11T06:24:56.713Z,13.40
2023-05-11T06:27:44.814Z,13.37
2023-05-11T06:30:32.801Z,13.67
2023-05-11T06:33:21.398Z,14.07
2023-05-11T06:36:13.098Z,14.29
2023-05-11T06:39:00.919Z,13.98
2023-05-11T06:41:53.530Z,14.04
2023-05-11T06:44:42.222Z,14.27
2023-05-11T06:47:31.537Z,14.44
2023-05-11T06:50:21.086Z,14.70
2023-05-11T06:53:10.988Z,15.00
2023-05-11T06:55:58.636Z,15.32
2023-05-11T06:58:47.120Z,15.62
2023-05-11T07:01:34.931Z,15.95
2023-05-11T07:04:22.913Z,16.15
2023-05-11T07:07:12.406Z,15.57
2023-05-11T07:10:00.143Z,15.73
2023-05-11T07:12:47.978Z,16.07
2023-05-11T07:15:35.867Z,15.84
2023-05-11T07:18:19.842Z,16.01
2023-05-11T07:21:07.744Z,16.43
2023-05-11T07:23:55.370Z,16.97
2023-05-11T07:26:43.216Z,17.11
2023-05-11T07:29:30.860Z,17.44
2023-05-11T07:32:18.740Z,17.93
2023-05-11T07:35:06.876Z,17.63
2023-05-11T07:37:54.748Z,17.59
2023-05-11T07:40:42.409Z,18.66
2023-05-11T07:43:30.699Z,18.92
2023-05-11T07:46:18.333Z,18.70
2023-05-11T07:52:01.970Z,19.23
2023-05-11T07:54:52.059Z,19.10
2023-05-11T07:57:39.635Z,19.37
2023-05-11T08:00:28.000Z,19.48
2023-05-11T08:03:16.064Z,19.38
2023-05-11T08:06:04.465Z,19.73
2023-05-11T08:08:52.317Z,20.06
2023-05-11T08:11:40.135Z,19.80
2023-05-11T08:14:27.937Z,19.46
2023-05-11T08:17:15.870Z,19.22
2023-05-11T08:20:06.995Z,19.86
2023-05-11T08:22:54.861Z,20.41
2023-05-11T08:25:42.936Z,20.35
2023-05-11T08:28:30.737Z,20.25
2023-05-11T08:31:18.862Z,20.53
2023-05-11T08:34:18.647Z,20.47
2023-05-11T08:37:07.665Z,21.12
2023-05-11T08:39:55.382Z,20.66
2023-05-11T08:42:47.118Z,20.35
2023-05-11T08:45:38.671Z,20.49
2023-05-11T08:48:27.638Z,20.52
2023-05-11T08:51:15.884Z,20.43
2023-05-11T08:54:03.936Z,20.58
2023-05-11T08:56:52.089Z,20.95
2023-05-11T08:59:41.072Z,20.76
2023-05-11T09:02:29.748Z,21.33
2023-05-11T09:05:18.489Z,21.17
2023-05-11T09:08:07.428Z,21.31
2023-05-11T09:10:55.577Z,21.50
2023-05-11T09:13:43.503Z,21.32
2023-05-11T09:16:37.248Z,20.55
2023-05-11T09:19:25.781Z,20.63
2023-05-11T09:22:13.389Z,21.00
2023-05-11T09:25:05.071Z,21.41
2023-05-11T09:27:53.045Z,22.00
2023-05-11T09:30:40.890Z,22.11
2023-05-11T09:33:28.580Z,22.19
2023-05-11T09:36:24.648Z,22.35
2023-05-11T09:39:16.635Z,22.69
2023-05-11T09:42:14.599Z,22.19
2023-05-11T09:45:02.209Z,22.41
2023-05-11T09:47:49.972Z,22.61
2023-05-11T09:50:37.718Z,22.21
2023-05-11T09:53:35.167Z,22.20
2023-05-11T09:57:00.387Z,22.27
2023-05-11T09:59:48.217Z,21.72
2023-05-11T10:02:36.144Z,21.95
2023-05-11T10:05:25.061Z,22.19
2023-05-11T10:08:12.786Z,23.04
2023-05-11T10:11:02.710Z,22.91
2023-05-11T10:13:51.593Z,22.01
2023-05-11T10:16:44.470Z,21.97
2023-05-11T10:19:33.649Z,22.11
2023-05-11T10:22:24.834Z,22.03
2023-05-11T10:25:13.676Z,22.06
2023-05-11T10:28:01.558Z,22.58
2023-05-11T10:30:49.836Z,22.61
2023-05-11T10:33:37.897Z,22.33
2023-05-11T10:36:26.531Z,22.41
2023-05-11T10:39:14.295Z,22.81
2023-05-11T10:42:29.865Z,23.20
2023-05-11T10:45:17.495Z,23.05
2023-05-11T10:48:16.910Z,22.38
2023-05-11T10:51:34.255Z,22.96
2023-05-11T10:54:46.713Z,23.24
2023-05-11T10:57:56.708Z,23.18
2023-05-11T11:01:09.719Z,22.52
2023-05-11T11:03:58.589Z,22.90
2023-05-11T11:06:46.547Z,23.05
2023-05-11T11:10:10.192Z,23.82
2023-05-11T11:13:11.570Z,23.76
2023-05-11T11:16:00.599Z,23.65
2023-05-11T11:18:48.423Z,23.80
2023-05-11T11:21:43.298Z,23.97
2023-05-11T11:24:44.987Z,24.13
2023-05-11T11:27:42.037Z,24.12
2023-05-11T11:31:22.088Z,24.27
2023-05-11T11:34:30.667Z,23.94
2023-05-11T11:37:19.038Z,23.97
2023-05-11T11:40:14.624Z,24.27
2023-05-11T11:43:20.112Z,23.53
2023-05-11T11:46:09.939Z,23.78
2023-05-11T11:49:08.660Z,23.90
2023-05-11T11:51:56.573Z,23.71
2023-05-11T11:54:45.682Z,23.80
2023-05-11T11:57:33.562Z,23.50
2023-05-11T12:00:21.706Z,23.33
2023-05-11T12:03:11.595Z,22.80
2023-05-11T12:06:01.953Z,22.88
2023-05-11T12:08:49.941Z,23.40
2023-05-11T12:11:38.531Z,23.33
2023-05-11T12:14:27.800Z,22.64
2023-05-11T12:17:24.943Z,22.45
2023-05-11T12:20:18.821Z,22.53
2023-05-11T12:23:12.640Z,22.98
2023-05-11T12:26:22.068Z,22.48
2023-05-11T12:29:11.881Z,22.44
2023-05-11T12:32:03.125Z,22.86
2023-05-11T12:35:07.357Z,22.75
2023-05-11T12:37:56.771Z,22.31
2023-05-11T12:40:51.554Z,22.53
2023-05-11T12:43:39.392Z,22.29
2023-05-11T12:46:27.529Z,22.55
2023-05-11T12:49:25.356Z,22.02
2023-05-11T12:52:14.592Z,22.31
2023-05-11T12:55:05.438Z,22.00
2023-05-11T12:57:54.890Z,22.21
2023-05-11T13:00:59.986Z,22.08
2023-05-11T13:03:48.357Z,22.13
2023-05-11T13:06:36.733Z,22.41
2023-05-11T13:09:28.058Z,21.98
2023-05-11T13:12:19.495Z,21.77
2023-05-11T13:15:15.509Z,21.34
2023-05-11T13:18:03.797Z,21.72
2023-05-11T13:21:05.932Z,21.97
2023-05-11T13:23:54.734Z,21.87
2023-05-11T13:26:42.350Z,21.77
2023-05-11T13:29:30.091Z,21.77
2023-05-11T13:32:17.777Z,21.73
2023-05-11T13:35:06.378Z,21.53
2023-05-11T13:37:53.970Z,21.73
2023-05-11T13:40:41.837Z,21.80
2023-05-11T13:43:30.059Z,21.56
2023-05-11T13:46:18.961Z,22.08
2023-05-11T13:49:09.572Z,21.77
2023-05-11T13:51:57.459Z,22.11
2023-05-11T13:54:46.094Z,21.59
2023-05-11T13:57:33.918Z,21.73
2023-05-11T14:00:21.897Z,21.58
2023-05-11T14:03:09.722Z,21.39
2023-05-11T14:05:58.117Z,21.39
2023-05-11T14:08:45.867Z,21.30
2023-05-11T14:11:33.448Z,21.60
2023-05-11T14:14:21.395Z,21.70
2023-05-11T14:17:10.917Z,21.32
2023-05-11T14:19:58.597Z,21.35
2023-05-11T14:22:47.312Z,21.14
2023-05-11T14:25:36.721Z,21.16
2023-05-11T14:28:24.368Z,21.12
2023-05-11T14:31:12.264Z,20.53
2023-05-11T14:34:00.059Z,20.80
2023-05-11T14:36:50.300Z,20.65
2023-05-11T14:39:37.948Z,20.50
2023-05-11T14:42:30.068Z,20.64
2023-05-11T14:45:17.841Z,20.87
2023-05-11T14:48:06.311Z,20.73
2023-05-11T14:50:54.124Z,20.75
2023-05-11T14:53:42.965Z,20.52
2023-05-11T14:56:30.874Z,20.65
2023-05-11T14:59:18.722Z,20.55
2023-05-11T15:02:06.498Z,20.56
2023-05-11T15:04:54.439Z,20.17
2023-05-11T15:07:42.168Z,19.98
2023-05-11T15:10:30.045Z,19.94
2023-05-11T15:13:18.520Z,19.69
2023-05-11T15:16:07.716Z,19.49
2023-05-11T15:18:55.666Z,19.35
2023-05-11T15:21:43.782Z,19.08
2023-05-11T15:24:31.406Z,19.10
2023-05-11T15:27:19.212Z,18.89
2023-05-11T15:30:07.484Z,18.77
2023-05-11T15:33:07.781Z,18.60
2023-05-11T15:35:58.226Z,18.34
2023-05-11T15:38:51.842Z,18.34
2023-05-11T15:41:39.350Z,18.31
2023-05-11T15:44:27.113Z,18.31
2023-05-11T15:47:16.466Z,18.20
2023-05-11T15:50:04.996Z,18.09
2023-05-11T15:52:53.605Z,17.87
2023-05-11T15:55:46.115Z,18.10
2023-05-11T15:58:33.819Z,17.95
2023-05-11T16:01:21.769Z,17.83
2023-05-11T16:04:15.574Z,17.73
2023-05-11T16:07:03.580Z,17.75
2023-05-11T16:09:51.404Z,17.58
2023-05-11T16:12:39.287Z,17.29
2023-05-11T16:15:27.565Z,17.50
2023-05-11T16:18:20.101Z,17.51
2023-05-11T16:21:10.917Z,17.39
2023-05-11T16:24:02.062Z,17.33
2023-05-11T16:26:52.614Z,17.24
2023-05-11T16:29:40.387Z,17.25
2023-05-11T16:32:30.670Z,17.04
2023-05-11T16:35:18.791Z,17.16
2023-05-11T16:38:08.711Z,17.11
2023-05-11T16:41:07.999Z,16.96
2023-05-11T16:43:56.208Z,16.94
2023-05-11T16:46:44.049Z,16.97
2023-05-11T16:49:31.934Z,16.87
2023-05-11T16:52:19.707Z,16.91
2023-05-11T16:55:08.220Z,16.86
2023-05-11T16:57:56.053Z,16.82
2023-05-11T17:00:46.512Z,16.63
2023-05-11T17:03:35.675Z,16.52
2023-05-11T17:06:24.966Z,16.66
2023-05-11T17:09:13.430Z,16.46
2023-05-11T17:12:03.910Z,16.47
2023-05-11T17:14:54.744Z,16.13
2023-05-11T17:17:42.909Z,16.27
2023-05-11T17:20:33.823Z,16.45
2023-05-11T17:23:22.077Z,16.37
2023-05-11T17:26:13.695Z,16.36
2023-05-11T17:29:01.650Z,16.38
2023-05-11T17:31:51.805Z,16.32
2023-05-11T17:34:39.810Z,16.17
2023-05-11T17:37:31.721Z,16.13
2023-05-11T17:40:20.297Z,16.14
2023-05-11T17:43:08.149Z,16.21
2023-05-11T17:45:55.874Z,16.19
2023-05-11T17:48:46.084Z,16.22
2023-05-11T17:51:33.747Z,16.03
2023-05-11T17:54:29.780Z,16.13
2023-05-11T17:57:17.558Z,16.14
2023-05-11T18:00:06.875Z,16.10
2023-05-11T18:02:54.772Z,15.96
2023-05-11T18:08:36.799Z,16.00
2023-05-11T18:11:24.567Z,16.05
2023-05-11T18:14:12.252Z,15.84
2023-05-11T18:17:00.143Z,15.83
2023-05-11T18:19:47.796Z,15.92
2023-05-11T18:22:35.534Z,15.95
2023-05-11T18:25:28.138Z,15.76
2023-05-11T18:28:17.037Z,15.76
2023-05-11T18:31:04.776Z,15.86
2023-05-11T18:33:52.756Z,15.80
2023-05-11T18:36:40.462Z,15.75
2023-05-11T18:39:28.468Z,15.56
2023-05-11T18:42:16.145Z,15.63
2023-05-11T18:45:04.161Z,15.50
2023-05-11T18:47:52.105Z,15.28
2023-05-11T18:50:40.650Z,15.31
2023-05-11T18:53:28.473Z,15.04
2023-05-11T18:56:17.627Z,15.40
2023-05-11T18:59:05.320Z,15.46
2023-05-11T19:01:53.166Z,14.87
2023-05-11T19:04:41.239Z,15.33
2023-05-11T19:07:28.975Z,15.25
2023-05-11T19:10:18.377Z,15.00
2023-05-11T19:13:07.494Z,15.10
2023-05-11T19:15:55.227Z,15.05
2023-05-11T19:18:42.959Z,15.02
2023-05-11T19:21:30.724Z,15.00
2023-05-11T19:24:18.626Z,14.78
2023-05-11T19:27:07.764Z,14.89
2023-05-11T19:29:56.370Z,14.89
2023-05-11T19:32:44.479Z,14.65
2023-05-11T19:35:34.642Z,14.77
2023-05-11T19:38:22.873Z,14.65
2023-05-11T19:41:10.576Z,14.59
2023-05-11T19:43:58.212Z,14.73
2023-05-11T19:46:48.466Z,14.67
2023-05-11T19:49:36.462Z,14.49
2023-05-11T19:52:24.139Z,14.60
2023-05-11T19:55:11.860Z,14.56
2023-05-11T19:58:04.902Z,14.34
2023-05-11T20:00:59.445Z,14.56
2023-05-11T20:03:50.245Z,14.61
2023-05-11T20:06:37.878Z,14.51
2023-05-11T20:09:25.652Z,14.40
2023-05-11T20:12:13.346Z,14.41
2023-05-11T20:15:01.337Z,14.37
2023-05-11T20:17:50.317Z,14.38
2023-05-11T20:20:41.310Z,14.33
2023-05-11T20:23:28.946Z,14.22
2023-05-11T20:26:16.888Z,14.25
2023-05-11T20:29:05.838Z,14.12
2023-05-11T20:31:53.574Z,13.93
2023-05-11T20:34:41.319Z,14.18
2023-05-11T20:37:29.015Z,13.88
2023-05-11T20:40:19.333Z,14.02
2023-05-11T20:43:07.175Z,13.89
2023-05-11T20:45:55.076Z,13.81
2023-05-11T20:48:44.652Z,13.81
2023-05-11T20:51:35.946Z,13.56
2023-05-11T20:54:24.251Z,13.81
2023-05-11T20:57:11.980Z,13.82
2023-05-11T21:02:50.386Z,13.69
2023-05-11T21:05:38.244Z,13.63
2023-05-11T21:08:25.965Z,13.62
2023-05-11T21:14:18.651Z,13.62
2023-05-11T21:17:06.488Z,13.51
2023-05-11T21:19:54.164Z,13.49
2023-05-11T21:22:41.944Z,13.35
2023-05-11T21:25:29.762Z,13.25
2023-05-11T21:28:17.750Z,13.35
2023-05-11T21:31:06.082Z,13.31
2023-05-11T21:33:53.968Z,13.30
2023-05-11T21:36:41.609Z,13.18
2023-05-11T21:39:29.442Z,12.98
2023-05-11T21:42:18.077Z,13.03
2023-05-11T21:45:06.611Z,13.03
2023-05-11T21:47:54.264Z,12.98
2023-05-11T21:50:44.183Z,12.95
2023-05-11T21:53:31.916Z,12.88
2023-05-11T21:56:20.650Z,12.85
2023-05-11T21:59:08.375Z,12.55
2023-05-11T22:01:57.492Z,12.63
2023-05-11T22:04:46.569Z,12.50
2023-05-11T22:07:34.214Z,12.76
2023-05-11T22:10:21.842Z,12.50
2023-05-11T22:13:09.549Z,12.65
2023-05-11T22:15:57.174Z,12.50
2023-05-11T22:18:45.314Z,12.27
2023-05-11T22:21:32.940Z,12.46
2023-05-11T22:24:21.856Z,12.34
2023-05-11T22:27:15.442Z,12.04
2023-05-11T22:30:03.259Z,12.18
2023-05-11T22:32:50.858Z,12.17
2023-05-11T22:35:38.715Z,11.66
2023-05-11T22:38:27.093Z,12.17
2023-05-11T22:41:14.832Z,12.13
2023-05-11T22:44:03.154Z,12.18
2023-05-11T22:46:51.031Z,12.15
2023-05-11T22:49:38.923Z,11.74
2023-05-11T22:52:26.764Z,12.10
2023-05-11T22:55:14.518Z,12.13
2023-05-11T22:58:04.724Z,11.89
2023-05-11T23:00:55.998Z,11.93
2023-05-11T23:03:43.878Z,11.97
2023-05-11T23:06:32.822Z,11.82
2023-05-11T23:09:20.862Z,11.97
2023-05-11T23:12:08.903Z,11.99
2023-05-11T23:14:56.677Z,11.96
2023-05-11T23:17:44.584Z,11.98
2023-05-11T23:20:32.377Z,11.94
2023-05-11T23:23:19.954Z,11.82
2023-05-11T23:26:07.652Z,11.83
2023-05-11T23:28:55.348Z,11.74
2023-05-11T23:31:43.128Z,11.78
2023-05-11T23:34:19.779Z,11.71
2023-05-11T23:37:07.678Z,11.67
2023-05-11T23:39:55.335Z,11.69
2023-05-11T23:42:43.123Z,11.37
2023-05-11T23:45:33.096Z,11.76
2023-05-11T23:48:20.815Z,11.49
2023-05-11T23:51:08.562Z,11.54
2023-05-11T23:53:56.373Z,11.65
2023-05-11T23:56:44.511Z,11.50
2023-05-11T23:59:32.323Z,11.49
